Flight Track Log - Related Links

Times and Time Zones

All times are in EDT time to prevent confusion due to time zone crossing. See the HPK1813 flight status page for this flight to view local times or setup timezone preferences in your user account.


Time Position Orientation Groundspeed Altitude Reporting Facility
EDT Latitude Longitude Course Direction KTS MPH feet Rate Location/Type
Thu 09:45:43 PM 42.9436 -73.8725 169° South 164 189 3,600  Level Boston Center
Thu 09:46:44 PM 42.8958 -73.8600 169° South 171 197 4,300 466 Climbing Boston Center
Thu 09:47:39 PM 42.8522 -73.8561 176° South 173 199 4,500 104 Climbing Boston Center
Thu 09:48:39 PM 42.8044 -73.8436 169° South 185 213 4,500  Level Boston Center
Thu 09:49:40 PM 42.7525 -73.8311 170° South 188 216 4,500  Level Boston Center
Thu 09:50:53 PM 42.6858 -73.8183 172° South 186 214 4,500  Level Boston Center
Thu 09:51:53 PM 42.6339 -73.8061 170° South 184 212 4,500  Level Boston Center
Thu 09:52:54 PM 42.5861 -73.7964 171° South 184 212 4,500  Level Boston Center
Thu 09:54:00 PM 42.5379 -73.8000 180° South  Level FlightAware Approximate
Thu 10:01:00 PM 42.2315 -73.7993 163° South  Level FlightAware Approximate
Thu 10:02:00 PM 42.1895 -73.7824 163° South  Level FlightAware Approximate
Thu 10:03:00 PM 42.1475 -73.7655 161° South  Level FlightAware Approximate
Thu 10:04:00 PM 42.1061 -73.7464 161° South  Level FlightAware Approximate
Thu 10:05:00 PM 42.0647 -73.7272 161° South  Level FlightAware Approximate
Thu 10:06:00 PM 42.0233 -73.7081 161° South  Level FlightAware Approximate
Thu 10:07:00 PM 41.9818 -73.6890 161° South  Level FlightAware Approximate
Thu 10:08:00 PM 41.9404 -73.6699 161° South  Level FlightAware Approximate
Thu 10:09:00 PM 41.8985 -73.6527 163° South  Level FlightAware Approximate
Thu 10:10:00 PM 41.8566 -73.6359 163° South  Level FlightAware Approximate
Thu 10:11:00 PM 41.8146 -73.6191 163° South  Level FlightAware Approximate
Thu 10:12:00 PM 41.7726 -73.6024 163° South  Level FlightAware Approximate
Thu 10:13:00 PM 41.7315 -73.5824 160° South  Level FlightAware Approximate
Thu 10:14:00 PM 41.6904 -73.5619 160° South  Level FlightAware Approximate
Thu 10:15:00 PM 41.6494 -73.5414 160° South  Level FlightAware Approximate
Thu 10:16:00 PM 41.6084 -73.5209 159° South  Level FlightAware Approximate
Thu 10:17:00 PM 41.5674 -73.5003 159° South  Level FlightAware Approximate
Thu 10:18:00 PM 41.5274 -73.4774 143° Southeast  Level FlightAware Approximate
Thu 10:19:00 PM 41.4923 -73.4423 143° Southeast  Level FlightAware Approximate
Thu 10:20:00 PM 41.4573 -73.4073 143° Southeast  Level FlightAware Approximate
Thu 10:21:00 PM 41.4223 -73.3722 143° Southeast  Level FlightAware Approximate
Thu 10:22:00 PM 41.3872 -73.3371 143° Southeast  Level FlightAware Approximate
Thu 10:23:00 PM 41.3522 -73.3021 143° Southeast  Level FlightAware Approximate
Thu 10:24:00 PM 41.3172 -73.2672 143° Southeast  Level FlightAware Approximate
Thu 10:25:00 PM 41.2801 -73.2361 148° Southeast  Level FlightAware Approximate
Thu 10:26:00 PM 41.2430 -73.2052 148° Southeast  Level FlightAware Approximate
Thu 10:27:00 PM 41.2065 -73.1731 143° Southeast  Level FlightAware Approximate
Thu 10:28:00 PM 41.1715 -73.1381 143° Southeast  Level FlightAware Approximate
Thu 10:29:00 PM 41.1395 -73.0991 129° Southeast  Level FlightAware Approximate
Thu 10:30:00 PM 41.1122 -73.0536 129° Southeast  Level FlightAware Approximate
Thu 10:31:00 PM 41.0806 -73.0140 143° Southeast  Level FlightAware Approximate
Thu 10:32:00 PM 41.0470 -72.9893 236° Southwest  Level FlightAware Approximate
Thu 10:33:00 PM 41.0181 -73.0319 217° Southwest  Level FlightAware Approximate
Thu 10:34:00 PM 40.9832 -73.0669 217° Southwest  Level FlightAware Approximate
Thu 10:35:00 PM 40.9482 -73.1018 217° Southwest  Level FlightAware Approximate
Thu 10:36:00 PM 40.9237 -73.1440 220° Southwest  Level FlightAware Approximate
Thu 10:37:00 PM 40.8902 -73.1813 220° Southwest  Level FlightAware Approximate
Thu 10:38:00 PM 40.8567 -73.2186 220° Southwest  Level FlightAware Approximate
Thu 10:39:00 PM 40.8232 -73.2558 220° Southwest  Level FlightAware Approximate
Thu 10:40:00 PM 40.7896 -73.2930 220° Southwest  Level FlightAware Approximate
Thu 10:41:00 PM 40.7586 -73.3328 237° Southwest  Level FlightAware Approximate
Thu 10:42:00 PM 40.7314 -73.3779 229° Southwest  Level FlightAware Approximate
Thu 10:43:00 PM 40.7167 -73.4000 229° Southwest  Level FlightAware Approximate
Thu 10:44:00 PM 40.7288 -73.4134 229° Southwest  Level Estimated
Thu 10:45:00 PM 40.7288 -73.4134 229° Southwest  Level Estimated
Thu 10:46:00 PM 40.7288 -73.4134 229° Southwest  Level Estimated
Thu 10:47:00 PM 40.7288 -73.4134 229° Southwest  Level Estimated
Thu 10:48:00 PM 40.7288 -73.4134 229° Southwest  Level Estimated
Thu 10:49:00 PM 40.7288 -73.4134 229° Southwest  Level Estimated
Thu 10:50:00 PM 40.7288 -73.4134 229° Southwest  Level Estimated
Thu 10:51:00 PM 40.7288 -73.4134 229° Southwest  Level Estimated
Thu 10:52:00 PM 40.7288 -73.4134 229° Southwest  Level Estimated
Thu 10:53:00 PM 40.7288 -73.4134 229° Southwest  Level Estimated
Thu 10:54:00 PM 40.7288 -73.4134 229° Southwest  Level Estimated
Thu 10:55:00 PM 40.7288 -73.4134 229° Southwest  Level Estimated
Thu 10:56:00 PM 40.7288 -73.4134 229° Southwest  Level Estimated
Thu 10:57:00 PM 40.7288 -73.4134 229° Southwest  Level Estimated
Thu 10:58:00 PM 40.7288 -73.4134 229° Southwest  Level Estimated
Thu 10:59:00 PM 40.7288 -73.4134 229° Southwest  Level Estimated
Thu 11:00:00 PM 40.7288 -73.4134 229° Southwest  Level Estimated
Thu 11:01:00 PM 40.7288 -73.4134 229° Southwest  Level Estimated
Thu 11:02:00 PM 40.7288 -73.4134 229° Southwest  Level Estimated

Login

Don't have an account? Register now (free) for customized features, flight alerts, and more!